aviador You're here:

KSAV Decoded Metar

SAVANNAH in GA, USA
Report Time2017-07-26 03:53:00
UTC Time2017-07-26 04:38:51
Flight Rules vfr VFR
Wind230° at 03 kt
W.Decomp.*RWY 28: 2.2 kt HW 2.1 kt LCW
RWY 19: 2.1 kt HW 2.2 kt RCW
W.Rank230° ranks 16
Current wind is below 230° avg. (6.5)
Visibility9999 m
Phenomena:N/A
Clouds:Few 055 Hf
Scattered 090 Hf
Broken 110 Hf
Overcast 160 Hf
Expected CloudBase > 800 ft AGL from Temp-Dew spread
Ceiling11,000 ft
Temp25°C (ISA +10)
Dew Point23°C (89% RH)
QNH1019 hPa
Density Alt1,381 ft
Elevation46 ft
Report Wrong Elevation
Raw Report
KSAV 260353Z 23003KT 10SM FEW055 SCT090 BKN110 OVC160 25/23 A3008
RMK AO2 SLP184 LAST T02500228=

Extra information for KSAV:More info

Metar Taf Metar & Taf Last 4 Metars F.Rules Stats Wind Profile Meteogram Temp Stats Airport Information Weather charts Add Link Nearby VenuesMetar ALERT Operation Metar Decoded Social comments

AIRNAV info for KSAV